Time;durP1;ratioP1;P1;durP2;ratioP2;P2;SDS_P1;SDS_P2;PMS_P1;PMS_P2;Temp;Humidity;BMP_temperature;BMP_pressure;BME280_temperature;BME280_humidity;BME280_pressure;Samples;Min_cycle;Max_cycle;Signal;HPM_P1;HPM_P2
2022/12/29 00:00:09;;;;;;;2.78;2.60;;;;;;;;;;4989591;28;99921;-75
2022/12/29 00:02:39;;;;;;;2.63;2.42;;;;;;;;;;4988093;28;98266;-74
2022/12/29 00:05:06;;;;;;;3.10;2.80;;;;;;;;;;4989531;28;99395;-76
2022/12/29 00:07:33;;;;;;;2.20;2.10;;;;;;;;;;4989473;28;99865;-75
2022/12/29 00:09:59;;;;;;;2.70;2.50;;;;;;;;;;4987771;28;98345;-78
2022/12/29 00:15:36;;;;;;;3.88;2.67;;;;;;;;;;4988125;28;98916;-76
2022/12/29 00:17:57;;;;;;;4.35;2.10;;;;;;;;;;4988394;28;98133;-74
2022/12/29 00:36:55;;;;;;;1.92;1.83;;;;;;;;;;4987718;28;99552;-75
2022/12/29 00:44:53;;;;;;;1.90;1.80;;;;;;;;;;4986063;28;99193;-76
2022/12/29 00:47:19;;;;;;;1.45;1.35;;;;;;;;;;4988032;28;98335;-75
2022/12/29 00:49:45;;;;;;;1.80;1.70;;;;;;;;;;4987495;28;99241;-75
2022/12/29 00:52:12;;;;;;;2.17;2.00;;;;;;;;;;4987326;28;98221;-75
2022/12/29 00:54:39;;;;;;;1.88;1.77;;;;;;;;;;4985029;28;98846;-75
2022/12/29 00:57:07;;;;;;;2.08;1.98;;;;;;;;;;4986069;28;99135;-75
2022/12/29 00:59:37;;;;;;;1.90;1.80;;;;;;;;;;4986926;28;98304;-75
2022/12/29 01:02:03;;;;;;;2.78;1.80;;;;;;;;;;4986200;28;99455;-75
2022/12/29 01:04:30;;;;;;;2.10;1.73;;;;;;;;;;4989340;28;99176;-75
2022/12/29 01:06:56;;;;;;;2.78;1.75;;;;;;;;;;4987729;28;98322;-75
2022/12/29 01:12:09;;;;;;;1.80;1.70;;;;;;;;;;4986896;28;98418;-75
2022/12/29 01:14:36;;;;;;;1.60;1.50;;;;;;;;;;4988097;28;98616;-75
2022/12/29 01:17:02;;;;;;;2.08;1.75;;;;;;;;;;4986860;28;101527;-75
2022/12/29 01:19:29;;;;;;;2.05;1.90;;;;;;;;;;4986816;28;98400;-75
2022/12/29 01:21:55;;;;;;;3.60;1.75;;;;;;;;;;4988277;28;99789;-75
2022/12/29 01:24:22;;;;;;;3.28;1.75;;;;;;;;;;4988082;28;100134;-75
2022/12/29 01:26:48;;;;;;;2.53;1.90;;;;;;;;;;4991016;28;98463;-75
2022/12/29 01:29:16;;;;;;;2.58;1.80;;;;;;;;;;4986613;28;99029;-75
2022/12/29 01:31:44;;;;;;;1.98;1.83;;;;;;;;;;4986564;28;98297;-75
2022/12/29 01:34:10;;;;;;;2.72;1.65;;;;;;;;;;4985754;28;100698;-76
2022/12/29 01:36:37;;;;;;;3.65;2.08;;;;;;;;;;4985516;28;100391;-74
2022/12/29 01:39:03;;;;;;;3.60;2.03;;;;;;;;;;4987953;28;98372;-74
2022/12/29 01:41:31;;;;;;;2.08;1.98;;;;;;;;;;4987347;28;98886;-75
2022/12/29 01:44:01;;;;;;;3.13;2.20;;;;;;;;;;4987077;28;99131;-75
2022/12/29 01:46:27;;;;;;;3.88;2.40;;;;;;;;;;4986173;28;98462;-75
2022/12/29 01:49:20;;;;;;;2.83;2.33;;;;;;;;;;4990889;28;98771;-76
2022/12/29 01:51:52;;;;;;;7.00;2.30;;;;;;;;;;4985709;28;98336;-77
2022/12/29 01:54:39;;;;;;;3.13;1.85;;;;;;;;;;4987031;28;99597;-78
2022/12/29 01:57:08;;;;;;;2.17;1.92;;;;;;;;;;4987863;28;98997;-77
2022/12/29 01:59:35;;;;;;;2.88;2.20;;;;;;;;;;4986290;28;98321;-77
2022/12/29 02:02:02;;;;;;;3.67;1.90;;;;;;;;;;4987409;28;99163;-78
2022/12/29 02:04:31;;;;;;;2.03;1.92;;;;;;;;;;4986953;28;99872;-78
2022/12/29 02:07:02;;;;;;;1.65;1.55;;;;;;;;;;4987783;28;98381;-80
2022/12/29 02:09:29;;;;;;;3.25;2.10;;;;;;;;;;4984206;28;99999;-78
2022/12/29 02:11:56;;;;;;;1.92;1.80;;;;;;;;;;4989302;28;98722;-78
2022/12/29 02:14:22;;;;;;;2.30;2.20;;;;;;;;;;4987497;28;98489;-78
2022/12/29 02:16:58;;;;;;;6.47;2.15;;;;;;;;;;4985139;28;100052;-78
2022/12/29 02:19:52;;;;;;;2.42;2.10;;;;;;;;;;4985958;28;98852;-77
2022/12/29 02:22:26;;;;;;;2.20;2.10;;;;;;;;;;4985610;28;99485;-78
2022/12/29 02:25:20;;;;;;;2.33;2.22;;;;;;;;;;4987635;28;98904;-78
2022/12/29 02:27:46;;;;;;;2.72;2.45;;;;;;;;;;4987386;28;98195;-78
2022/12/29 02:30:16;;;;;;;2.13;1.92;;;;;;;;;;4986905;28;99036;-78
2022/12/29 02:32:56;;;;;;;2.45;1.73;;;;;;;;;;4986865;28;99375;-78
2022/12/29 02:35:27;;;;;;;2.40;2.20;;;;;;;;;;4988449;28;98248;-78
2022/12/29 02:37:54;;;;;;;2.45;1.95;;;;;;;;;;4984787;28;101400;-78
2022/12/29 02:40:27;;;;;;;4.80;2.10;;;;;;;;;;4986926;28;98262;-77
2022/12/29 02:43:08;;;;;;;2.83;1.75;;;;;;;;;;4985042;28;98151;-78
2022/12/29 02:45:38;;;;;;;6.60;2.00;;;;;;;;;;4988153;28;100320;-78
2022/12/29 02:48:23;;;;;;;2.72;1.50;;;;;;;;;;4986452;28;98997;-78
2022/12/29 02:51:02;;;;;;;2.97;1.35;;;;;;;;;;4985363;28;98875;-78
2022/12/29 02:56:17;;;;;;;2.00;1.30;;;;;;;;;;4989212;28;98663;-78
2022/12/29 02:58:45;;;;;;;3.10;1.60;;;;;;;;;;4984497;28;101892;-78
2022/12/29 03:01:23;;;;;;;0.88;0.85;;;;;;;;;;4986808;28;98263;-78
2022/12/29 03:04:02;;;;;;;1.08;1.00;;;;;;;;;;4987210;28;98334;-78
2022/12/29 03:06:32;;;;;;;2.25;1.00;;;;;;;;;;4986846;28;98875;-78
2022/12/29 03:09:06;;;;;;;5.22;0.95;;;;;;;;;;4985042;28;98420;-78
2022/12/29 03:12:08;;;;;;;2.17;1.13;;;;;;;;;;4986423;28;98455;-78
2022/12/29 03:17:58;;;;;;;1.90;1.20;;;;;;;;;;4986779;28;98278;-78
2022/12/29 03:20:31;;;;;;;2.20;1.00;;;;;;;;;;4983658;28;101252;-78
2022/12/29 03:23:00;;;;;;;1.05;0.93;;;;;;;;;;4985975;28;98318;-78
2022/12/29 03:25:35;;;;;;;2.28;1.15;;;;;;;;;;4984834;28;98680;-78
2022/12/29 03:28:06;;;;;;;2.55;1.23;;;;;;;;;;4984433;28;100816;-78
2022/12/29 03:30:39;;;;;;;1.95;0.80;;;;;;;;;;4986981;28;98257;-78
2022/12/29 03:33:09;;;;;;;4.10;1.17;;;;;;;;;;4984857;28;99456;-78
2022/12/29 03:35:38;;;;;;;3.22;1.00;;;;;;;;;;4985099;28;100844;-78
2022/12/29 03:38:10;;;;;;;5.15;1.00;;;;;;;;;;4985399;28;98225;-78
2022/12/29 03:40:39;;;;;;;3.13;1.30;;;;;;;;;;4985797;28;99063;-78
2022/12/29 03:43:06;;;;;;;1.88;1.23;;;;;;;;;;4989673;28;98878;-77
2022/12/29 03:45:34;;;;;;;1.88;1.17;;;;;;;;;;4985336;28;101075;-77
2022/12/29 03:48:01;;;;;;;1.42;1.05;;;;;;;;;;4983729;28;101382;-78
2022/12/29 03:50:28;;;;;;;2.47;1.15;;;;;;;;;;4984978;28;98366;-78
2022/12/29 03:52:55;;;;;;;2.67;1.30;;;;;;;;;;4985475;28;99432;-78
2022/12/29 03:55:22;;;;;;;4.78;1.30;;;;;;;;;;4985877;28;98111;-78
2022/12/29 03:57:48;;;;;;;1.98;1.30;;;;;;;;;;4985037;28;98465;-78
2022/12/29 04:00:22;;;;;;;3.00;1.30;;;;;;;;;;4986468;28;100736;-77
2022/12/29 04:02:49;;;;;;;3.55;1.48;;;;;;;;;;4988277;28;99295;-77
2022/12/29 04:05:22;;;;;;;1.85;1.60;;;;;;;;;;4991762;28;98254;-78
2022/12/29 04:07:52;;;;;;;7.50;1.58;;;;;;;;;;4987739;28;98990;-78
2022/12/29 04:10:18;;;;;;;2.55;1.60;;;;;;;;;;4989859;28;98301;-78
2022/12/29 04:12:47;;;;;;;3.35;1.25;;;;;;;;;;4987896;28;100775;-77
2022/12/29 04:15:13;;;;;;;3.38;1.55;;;;;;;;;;4987519;28;101892;-78
2022/12/29 04:17:40;;;;;;;4.47;1.50;;;;;;;;;;4987404;28;98364;-78
2022/12/29 04:22:58;;;;;;;2.83;1.83;;;;;;;;;;4987469;28;98976;-78
2022/12/29 04:25:25;;;;;;;2.10;1.50;;;;;;;;;;4988160;28;98332;-77
2022/12/29 04:27:52;;;;;;;4.55;1.75;;;;;;;;;;4991538;28;100445;-78
2022/12/29 04:30:39;;;;;;;7.10;2.03;;;;;;;;;;4987178;28;98365;-77
2022/12/29 04:33:15;;;;;;;6.57;1.35;;;;;;;;;;4988472;28;100234;-77
2022/12/29 04:35:44;;;;;;;7.20;1.92;;;;;;;;;;4986475;28;101261;-77
2022/12/29 04:38:12;;;;;;;3.83;1.60;;;;;;;;;;4987947;28;98307;-77
2022/12/29 04:40:40;;;;;;;5.80;1.63;;;;;;;;;;4987173;28;100199;-77
2022/12/29 04:43:08;;;;;;;5.35;1.73;;;;;;;;;;4986409;28;101036;-77
2022/12/29 04:45:47;;;;;;;7.57;1.63;;;;;;;;;;4987270;28;98350;-77
2022/12/29 04:48:25;;;;;;;4.50;1.45;;;;;;;;;;4987805;28;100862;-77
2022/12/29 04:51:12;;;;;;;8.25;2.10;;;;;;;;;;4990451;28;98606;-78
2022/12/29 04:53:40;;;;;;;7.80;2.10;;;;;;;;;;4987224;28;99534;-78
2022/12/29 04:56:07;;;;;;;10.98;2.03;;;;;;;;;;4987726;28;100972;-78
2022/12/29 04:58:33;;;;;;;5.28;1.30;;;;;;;;;;4986746;28;98275;-78
2022/12/29 05:01:00;;;;;;;4.22;1.55;;;;;;;;;;4987848;28;100797;-78
2022/12/29 05:03:29;;;;;;;6.03;2.00;;;;;;;;;;4986461;28;101691;-77
2022/12/29 05:05:56;;;;;;;15.80;2.28;;;;;;;;;;4988729;28;98350;-78
2022/12/29 05:08:23;;;;;;;5.38;1.35;;;;;;;;;;4986490;28;100022;-78
2022/12/29 05:10:55;;;;;;;6.55;1.88;;;;;;;;;;4988884;28;101208;-78
2022/12/29 05:13:21;;;;;;;8.93;2.13;;;;;;;;;;4987250;28;99600;-77
2022/12/29 05:15:51;;;;;;;10.98;2.08;;;;;;;;;;4988579;28;102248;-77
2022/12/29 05:18:19;;;;;;;10.70;2.80;;;;;;;;;;4986289;28;98523;-77
2022/12/29 05:20:46;;;;;;;12.25;2.33;;;;;;;;;;4986425;28;100720;-76
2022/12/29 05:23:12;;;;;;;10.18;1.90;;;;;;;;;;4987050;28;101849;-77
2022/12/29 05:25:40;;;;;;;15.10;3.28;;;;;;;;;;4986252;28;98767;-76
2022/12/29 05:28:32;;;;;;;7.47;2.23;;;;;;;;;;4986537;28;99843;-76
2022/12/29 05:31:11;;;;;;;11.07;1.85;;;;;;;;;;4986541;28;100826;-77
2022/12/29 05:33:38;;;;;;;14.02;2.97;;;;;;;;;;4988078;28;98442;-77
2022/12/29 05:36:05;;;;;;;13.73;2.00;;;;;;;;;;4986516;28;101389;-76
2022/12/29 05:38:33;;;;;;;12.88;2.72;;;;;;;;;;4987723;28;98293;-76
2022/12/29 05:41:00;;;;;;;10.52;2.05;;;;;;;;;;4986267;28;98682;-77
2022/12/29 05:43:45;;;;;;;11.70;2.35;;;;;;;;;;4986098;28;99566;-77
2022/12/29 05:46:27;;;;;;;15.50;2.47;;;;;;;;;;4985677;28;98645;-77
2022/12/29 05:49:08;;;;;;;10.82;1.80;;;;;;;;;;4986296;28;100533;-77
2022/12/29 05:51:57;;;;;;;12.93;2.35;;;;;;;;;;4984071;28;99184;-77
2022/12/29 05:54:24;;;;;;;9.50;3.22;;;;;;;;;;4985736;28;98487;-77
2022/12/29 05:56:51;;;;;;;8.05;2.30;;;;;;;;;;4989348;28;101024;-77
2022/12/29 05:59:17;;;;;;;17.33;2.25;;;;;;;;;;4985137;28;98369;-77
2022/12/29 06:01:43;;;;;;;11.27;2.20;;;;;;;;;;4985412;28;101352;-77
2022/12/29 06:04:11;;;;;;;10.30;2.25;;;;;;;;;;4985822;28;98998;-77
2022/12/29 06:06:38;;;;;;;9.85;2.60;;;;;;;;;;4987335;28;98585;-76
2022/12/29 06:09:09;;;;;;;9.52;2.33;;;;;;;;;;4985327;28;98499;-77
2022/12/29 06:11:35;;;;;;;7.05;1.80;;;;;;;;;;4986040;28;101858;-77
2022/12/29 06:14:02;;;;;;;12.43;2.40;;;;;;;;;;4985412;28;98275;-77
2022/12/29 06:16:28;;;;;;;14.27;2.63;;;;;;;;;;4985613;28;100747;-76
2022/12/29 06:18:57;;;;;;;3.92;1.85;;;;;;;;;;4989056;28;101398;-76
2022/12/29 06:21:24;;;;;;;16.15;2.90;;;;;;;;;;4985079;28;101021;-76
2022/12/29 06:23:50;;;;;;;9.15;2.38;;;;;;;;;;4986365;28;100024;-77
2022/12/29 06:26:17;;;;;;;12.52;2.10;;;;;;;;;;4985924;28;98249;-76
2022/12/29 06:28:46;;;;;;;15.75;3.17;;;;;;;;;;4984766;28;99742;-76
2022/12/29 06:31:13;;;;;;;8.52;2.25;;;;;;;;;;4985431;28;101697;-77
2022/12/29 06:33:39;;;;;;;14.88;2.60;;;;;;;;;;4985432;28;98691;-76
2022/12/29 06:36:06;;;;;;;13.13;3.22;;;;;;;;;;4985474;28;98739;-76
2022/12/29 06:38:34;;;;;;;8.23;2.22;;;;;;;;;;4985407;28;99552;-76
2022/12/29 06:41:01;;;;;;;16.85;2.90;;;;;;;;;;4989367;28;98269;-77
2022/12/29 06:43:53;;;;;;;12.85;2.67;;;;;;;;;;4986089;28;98864;-81
2022/12/29 06:46:34;;;;;;;9.02;2.05;;;;;;;;;;4986752;28;98454;-78
2022/12/29 06:49:01;;;;;;;10.55;2.45;;;;;;;;;;4985544;28;101081;-78
2022/12/29 06:51:28;;;;;;;12.60;2.38;;;;;;;;;;4986502;28;100300;-78
2022/12/29 06:53:54;;;;;;;13.75;2.35;;;;;;;;;;4986778;28;98289;-78
2022/12/29 06:56:20;;;;;;;21.80;2.85;;;;;;;;;;4986807;28;98953;-78
2022/12/29 06:58:47;;;;;;;14.32;2.42;;;;;;;;;;4986381;28;99875;-78
2022/12/29 07:01:13;;;;;;;12.73;2.60;;;;;;;;;;4990272;28;98019;-78
2022/12/29 07:03:41;;;;;;;13.60;2.55;;;;;;;;;;4986001;28;100023;-78
2022/12/29 07:06:07;;;;;;;14.95;3.08;;;;;;;;;;4986938;28;98258;-78
2022/12/29 07:08:34;;;;;;;14.93;3.03;;;;;;;;;;4985695;28;100410;-78
2022/12/29 07:11:00;;;;;;;12.13;2.50;;;;;;;;;;4986156;28;99112;-78
2022/12/29 07:13:26;;;;;;;15.38;2.88;;;;;;;;;;4985556;28;98232;-78
2022/12/29 07:15:53;;;;;;;18.70;3.20;;;;;;;;;;4986784;28;99385;-78
2022/12/29 07:18:19;;;;;;;8.27;2.67;;;;;;;;;;4985977;28;99977;-78
2022/12/29 07:20:45;;;;;;;5.38;1.73;;;;;;;;;;4986471;28;98914;-78
2022/12/29 07:23:12;;;;;;;10.38;2.53;;;;;;;;;;4989664;28;98853;-78
2022/12/29 07:25:40;;;;;;;13.93;2.58;;;;;;;;;;4985745;28;98570;-78
2022/12/29 07:28:07;;;;;;;8.63;1.80;;;;;;;;;;4986357;28;98613;-78
2022/12/29 07:30:33;;;;;;;7.82;1.73;;;;;;;;;;4986216;28;99150;-78
2022/12/29 07:32:59;;;;;;;6.70;1.85;;;;;;;;;;4985870;28;98932;-78
2022/12/29 07:35:26;;;;;;;8.27;2.15;;;;;;;;;;4988231;28;98668;-78
2022/12/29 07:37:52;;;;;;;13.52;2.42;;;;;;;;;;4988790;28;100370;-78
2022/12/29 07:40:19;;;;;;;9.30;2.10;;;;;;;;;;4989181;28;98336;-78
2022/12/29 07:42:45;;;;;;;19.95;5.55;;;;;;;;;;4989423;28;99379;-78
2022/12/29 07:45:14;;;;;;;16.92;2.35;;;;;;;;;;4990624;28;101456;-77
2022/12/29 07:48:07;;;;;;;6.65;2.08;;;;;;;;;;4989779;28;99487;-77
2022/12/29 07:50:36;;;;;;;8.00;2.40;;;;;;;;;;4989229;28;99133;-76
2022/12/29 07:53:03;;;;;;;11.40;3.05;;;;;;;;;;4988825;28;98568;-77
2022/12/29 07:55:29;;;;;;;10.75;2.30;;;;;;;;;;4989693;28;99229;-77
2022/12/29 07:57:56;;;;;;;9.70;2.30;;;;;;;;;;4990002;28;100005;-78
2022/12/29 08:00:22;;;;;;;11.85;2.47;;;;;;;;;;4988925;28;98330;-77
2022/12/29 08:02:50;;;;;;;14.82;2.38;;;;;;;;;;4988218;28;99456;-78
2022/12/29 08:05:17;;;;;;;11.20;2.33;;;;;;;;;;4989460;28;99561;-77
2022/12/29 08:07:44;;;;;;;11.18;2.05;;;;;;;;;;4991810;28;99239;-78
2022/12/29 08:10:10;;;;;;;13.80;2.70;;;;;;;;;;4989168;28;99066;-77
2022/12/29 08:12:37;;;;;;;9.98;2.63;;;;;;;;;;4988890;28;98315;-78
2022/12/29 08:15:04;;;;;;;5.82;1.58;;;;;;;;;;4988820;28;99609;-77
2022/12/29 08:17:30;;;;;;;9.85;3.03;;;;;;;;;;4989156;28;99191;-77
2022/12/29 08:19:57;;;;;;;14.80;3.78;;;;;;;;;;4989735;28;98396;-77
2022/12/29 08:22:23;;;;;;;18.92;3.15;;;;;;;;;;4988924;28;99623;-77
2022/12/29 08:24:49;;;;;;;13.50;3.72;;;;;;;;;;4989480;28;99480;-77
2022/12/29 08:27:16;;;;;;;6.78;1.90;;;;;;;;;;4988726;28;98267;-76
2022/12/29 08:29:46;;;;;;;7.80;2.60;;;;;;;;;;4991924;28;98688;-77
2022/12/29 08:32:13;;;;;;;12.15;2.50;;;;;;;;;;4988917;28;98333;-76
2022/12/29 08:34:39;;;;;;;14.77;2.83;;;;;;;;;;4988333;28;99433;-76
2022/12/29 08:37:05;;;;;;;6.55;2.30;;;;;;;;;;4989277;28;99960;-76
2022/12/29 08:39:32;;;;;;;7.97;2.60;;;;;;;;;;4989208;28;98321;-76
2022/12/29 08:41:58;;;;;;;12.32;2.83;;;;;;;;;;4988791;28;99723;-76
2022/12/29 08:44:24;;;;;;;8.20;2.95;;;;;;;;;;4989258;28;100405;-76
2022/12/29 08:46:51;;;;;;;12.43;2.90;;;;;;;;;;4988920;28;98321;-76
2022/12/29 08:49:17;;;;;;;9.00;2.17;;;;;;;;;;4988612;28;98740;-76
2022/12/29 08:51:44;;;;;;;16.48;2.80;;;;;;;;;;4990997;28;99114;-78
2022/12/29 08:54:10;;;;;;;13.45;3.08;;;;;;;;;;4988946;28;99499;-78
2022/12/29 08:56:36;;;;;;;11.35;2.85;;;;;;;;;;4986687;28;101313;-77
2022/12/29 08:59:03;;;;;;;13.73;3.13;;;;;;;;;;4987420;28;98366;-77
2022/12/29 09:01:30;;;;;;;10.07;2.65;;;;;;;;;;4987253;28;100716;-76
2022/12/29 09:03:57;;;;;;;7.07;2.28;;;;;;;;;;4987996;28;99323;-78
2022/12/29 09:06:43;;;;;;;16.92;3.33;;;;;;;;;;4988084;28;98197;-77
2022/12/29 09:09:10;;;;;;;14.52;2.88;;;;;;;;;;4988556;28;98777;-77
2022/12/29 09:11:36;;;;;;;14.63;3.05;;;;;;;;;;4990446;28;100335;-77
2022/12/29 09:14:03;;;;;;;17.85;3.13;;;;;;;;;;4988485;28;99029;-77
2022/12/29 09:16:30;;;;;;;13.02;3.30;;;;;;;;;;4987324;28;100247;-77
2022/12/29 09:18:56;;;;;;;15.43;3.28;;;;;;;;;;4987530;28;98978;-77
2022/12/29 09:21:22;;;;;;;6.75;2.15;;;;;;;;;;4988342;28;99391;-77
2022/12/29 09:23:49;;;;;;;16.65;4.00;;;;;;;;;;4987480;28;100219;-77
2022/12/29 09:26:15;;;;;;;11.02;3.67;;;;;;;;;;4988065;28;98315;-77
2022/12/29 09:28:42;;;;;;;10.73;2.47;;;;;;;;;;4987793;28;98764;-76
2022/12/29 09:31:08;;;;;;;13.20;2.47;;;;;;;;;;4987612;28;99567;-76
2022/12/29 09:33:34;;;;;;;7.75;2.05;;;;;;;;;;4991365;28;98904;-77
2022/12/29 09:36:01;;;;;;;16.73;2.67;;;;;;;;;;4987983;28;99988;-76
2022/12/29 09:38:28;;;;;;;11.70;2.50;;;;;;;;;;4987680;28;99711;-76
2022/12/29 09:41:17;;;;;;;13.00;2.00;;;;;;;;;;4987224;28;99768;-76
2022/12/29 09:43:44;;;;;;;12.63;3.65;;;;;;;;;;4987838;28;100178;-76
2022/12/29 09:46:31;;;;;;;7.07;1.75;;;;;;;;;;4987352;28;98292;-76
2022/12/29 09:48:58;;;;;;;15.82;2.63;;;;;;;;;;4987898;28;99664;-75
2022/12/29 09:51:25;;;;;;;12.57;2.50;;;;;;;;;;4987461;28;99401;-75
2022/12/29 09:53:53;;;;;;;15.95;2.70;;;;;;;;;;4987336;28;98738;-76
2022/12/29 09:56:21;;;;;;;11.15;1.92;;;;;;;;;;4991016;28;98665;-78
2022/12/29 09:58:51;;;;;;;9.60;1.90;;;;;;;;;;4986993;28;98293;-77
2022/12/29 10:01:26;;;;;;;17.48;2.53;;;;;;;;;;4988013;28;99447;-77
2022/12/29 10:03:55;;;;;;;13.60;3.58;;;;;;;;;;4988307;28;99079;-78
2022/12/29 10:06:40;;;;;;;11.07;3.10;;;;;;;;;;4986512;28;98295;-78
2022/12/29 10:09:29;;;;;;;13.15;2.63;;;;;;;;;;4987327;28;98607;-77
2022/12/29 10:12:14;;;;;;;15.60;3.08;;;;;;;;;;4987645;28;100109;-77
2022/12/29 10:14:43;;;;;;;10.73;2.40;;;;;;;;;;4986831;28;98106;-76
2022/12/29 10:17:18;;;;;;;12.82;2.67;;;;;;;;;;4988078;28;98939;-78
2022/12/29 10:20:03;;;;;;;10.63;2.40;;;;;;;;;;4990544;28;99981;-77
2022/12/29 10:22:30;;;;;;;12.43;2.70;;;;;;;;;;4986849;28;98620;-77
2022/12/29 10:24:56;;;;;;;8.73;2.28;;;;;;;;;;4987465;28;100039;-77
2022/12/29 10:27:30;;;;;;;7.95;2.25;;;;;;;;;;4986572;28;98310;-77
2022/12/29 10:29:57;;;;;;;9.93;2.63;;;;;;;;;;4987828;28;100039;-77
2022/12/29 10:32:31;;;;;;;13.45;2.53;;;;;;;;;;4986301;28;100085;-78
2022/12/29 10:35:00;;;;;;;10.30;2.33;;;;;;;;;;4986444;28;99121;-76
2022/12/29 10:37:37;;;;;;;10.95;2.22;;;;;;;;;;4986986;28;99525;-77
2022/12/29 10:40:13;;;;;;;6.30;2.05;;;;;;;;;;4987283;28;99256;-77
2022/12/29 10:42:43;;;;;;;7.88;2.10;;;;;;;;;;4989915;28;98343;-77
2022/12/29 10:45:13;;;;;;;10.18;3.25;;;;;;;;;;4986747;28;100426;-77
2022/12/29 10:47:46;;;;;;;7.13;2.05;;;;;;;;;;4985784;28;98541;-77
2022/12/29 10:50:13;;;;;;;12.38;2.58;;;;;;;;;;4986832;28;99755;-79
2022/12/29 10:52:39;;;;;;;11.90;2.88;;;;;;;;;;4986833;28;99354;-78
2022/12/29 10:55:13;;;;;;;14.13;2.67;;;;;;;;;;4987297;28;98851;-77
2022/12/29 10:57:43;;;;;;;11.27;2.53;;;;;;;;;;4985982;28;99311;-77
2022/12/29 11:00:12;;;;;;;16.38;3.15;;;;;;;;;;4987089;28;99283;-77
2022/12/29 11:02:38;;;;;;;14.32;3.35;;;;;;;;;;4985994;28;98262;-78
2022/12/29 11:05:10;;;;;;;16.30;3.97;;;;;;;;;;4990480;28;98726;-76
2022/12/29 11:07:37;;;;;;;18.05;3.83;;;;;;;;;;4987172;28;98302;-77
2022/12/29 11:10:22;;;;;;;16.35;4.30;;;;;;;;;;4989023;28;98700;-77
2022/12/29 11:13:17;;;;;;;11.73;3.60;;;;;;;;;;4990712;28;100212;-78
2022/12/29 11:15:47;;;;;;;13.70;3.60;;;;;;;;;;4984665;28;98254;-78
2022/12/29 11:18:24;;;;;;;26.10;4.47;;;;;;;;;;4990112;28;99278;-76
2022/12/29 11:20:55;;;;;;;25.55;4.20;;;;;;;;;;4990401;28;99569;-77
2022/12/29 11:23:22;;;;;;;24.35;4.72;;;;;;;;;;4989027;28;98378;-79
2022/12/29 11:26:07;;;;;;;23.63;4.68;;;;;;;;;;4993373;28;99559;-77
2022/12/29 11:28:33;;;;;;;25.02;4.75;;;;;;;;;;4991121;28;98507;-78
2022/12/29 11:31:01;;;;;;;24.40;4.78;;;;;;;;;;4989555;28;98878;-78
2022/12/29 11:33:29;;;;;;;19.48;4.38;;;;;;;;;;4989594;28;100061;-79
2022/12/29 11:36:01;;;;;;;19.67;3.95;;;;;;;;;;4990005;28;98274;-77
2022/12/29 11:38:31;;;;;;;21.33;4.50;;;;;;;;;;4989502;28;99056;-77
2022/12/29 11:40:57;;;;;;;21.88;3.90;;;;;;;;;;4990139;28;99213;-78
2022/12/29 11:43:34;;;;;;;23.05;4.75;;;;;;;;;;4989785;28;98220;-78
2022/12/29 11:46:03;;;;;;;13.35;3.55;;;;;;;;;;4989230;28;98358;-78
2022/12/29 11:48:33;;;;;;;19.88;4.13;;;;;;;;;;4991869;28;99895;-77
2022/12/29 11:50:59;;;;;;;23.73;4.30;;;;;;;;;;4989698;28;99762;-77
2022/12/29 11:53:44;;;;;;;17.38;3.85;;;;;;;;;;4988540;28;100194;-77
2022/12/29 11:56:13;;;;;;;20.95;3.78;;;;;;;;;;4989205;28;98352;-76
2022/12/29 11:58:39;;;;;;;22.88;5.50;;;;;;;;;;4988865;28;99482;-77
2022/12/29 12:01:10;;;;;;;23.50;4.22;;;;;;;;;;4989597;28;100008;-77
2022/12/29 12:03:38;;;;;;;32.05;4.80;;;;;;;;;;4989168;28;98219;-77
2022/12/29 12:06:06;;;;;;;17.67;4.05;;;;;;;;;;4989134;28;99534;-76
2022/12/29 12:08:43;;;;;;;16.52;3.70;;;;;;;;;;4988532;28;99934;-76
2022/12/29 12:11:24;;;;;;;23.25;4.60;;;;;;;;;;4993069;28;98389;-76
2022/12/29 12:14:00;;;;;;;21.90;4.43;;;;;;;;;;4986259;28;101333;-77
2022/12/29 12:16:46;;;;;;;21.17;4.47;;;;;;;;;;4987741;28;98290;-77
2022/12/29 12:19:23;;;;;;;18.65;4.50;;;;;;;;;;4989248;28;99536;-77
2022/12/29 12:22:03;;;;;;;17.55;3.78;;;;;;;;;;4988038;28;100310;-77
2022/12/29 12:24:32;;;;;;;23.33;4.85;;;;;;;;;;4989138;28;98594;-77
2022/12/29 12:27:17;;;;;;;19.33;4.40;;;;;;;;;;4988678;28;99530;-77
2022/12/29 12:29:52;;;;;;;23.27;4.63;;;;;;;;;;4988761;28;99511;-77
2022/12/29 12:32:41;;;;;;;24.88;4.78;;;;;;;;;;4989371;28;98375;-77
2022/12/29 12:35:10;;;;;;;26.92;5.35;;;;;;;;;;4991551;28;99599;-75
2022/12/29 12:37:49;;;;;;;25.30;5.85;;;;;;;;;;4988790;28;98142;-75
2022/12/29 12:40:22;;;;;;;27.50;6.40;;;;;;;;;;4988140;28;99333;-76
2022/12/29 12:42:51;;;;;;;23.35;5.53;;;;;;;;;;4988147;28;100286;-76
2022/12/29 12:45:37;;;;;;;29.33;4.68;;;;;;;;;;4989162;28;98320;-76
2022/12/29 12:48:09;;;;;;;28.60;5.03;;;;;;;;;;4988355;28;99814;-77
2022/12/29 12:50:54;;;;;;;21.08;4.47;;;;;;;;;;4988494;28;100052;-77
2022/12/29 12:53:21;;;;;;;22.77;5.10;;;;;;;;;;4988714;28;98082;-77
2022/12/29 12:56:06;;;;;;;28.75;4.78;;;;;;;;;;4988278;28;98773;-79
2022/12/29 12:58:41;;;;;;;24.98;5.32;;;;;;;;;;4991837;28;99099;-77
2022/12/29 13:01:13;;;;;;;35.15;5.63;;;;;;;;;;4988859;28;98679;-76
2022/12/29 13:03:40;;;;;;;35.50;5.70;;;;;;;;;;4987701;28;100242;-77
2022/12/29 13:06:22;;;;;;;28.17;4.70;;;;;;;;;;4988014;28;98306;-78
2022/12/29 13:09:07;;;;;;;23.73;4.33;;;;;;;;;;4988593;28;98740;-77
2022/12/29 13:11:36;;;;;;;18.45;4.07;;;;;;;;;;4988046;28;100293;-77
2022/12/29 13:14:21;;;;;;;27.92;3.85;;;;;;;;;;4988591;28;98391;-77
2022/12/29 13:17:02;;;;;;;31.95;4.50;;;;;;;;;;4987490;28;98255;-77
2022/12/29 13:19:34;;;;;;;22.20;4.05;;;;;;;;;;4987808;28;99003;-76
2022/12/29 13:22:04;;;;;;;16.00;3.78;;;;;;;;;;4992128;28;98653;-76
2022/12/29 13:24:32;;;;;;;15.70;5.50;;;;;;;;;;4987626;28;100026;-77
2022/12/29 13:26:58;;;;;;;24.63;5.00;;;;;;;;;;4988864;28;98369;-77
2022/12/29 13:29:35;;;;;;;19.25;3.33;;;;;;;;;;4988051;28;100373;-76
2022/12/29 13:32:17;;;;;;;13.35;3.95;;;;;;;;;;4985521;28;99985;-77
2022/12/29 13:34:53;;;;;;;20.60;3.97;;;;;;;;;;4987768;28;98293;-77
2022/12/29 13:37:23;;;;;;;21.63;3.17;;;;;;;;;;4987983;28;98760;-77
2022/12/29 13:39:54;;;;;;;16.90;3.55;;;;;;;;;;4988365;28;99134;-77
2022/12/29 13:42:21;;;;;;;16.90;3.22;;;;;;;;;;4991126;28;98767;-77
2022/12/29 13:45:01;;;;;;;17.52;4.63;;;;;;;;;;4986889;28;100268;-77
2022/12/29 13:47:44;;;;;;;26.85;3.97;;;;;;;;;;4988082;28;98331;-76
2022/12/29 13:50:21;;;;;;;20.70;4.88;;;;;;;;;;4988489;28;98849;-75
2022/12/29 13:52:52;;;;;;;10.23;3.55;;;;;;;;;;4986908;28;100665;-75
2022/12/29 13:55:19;;;;;;;20.75;3.33;;;;;;;;;;4987775;28;98211;-75
2022/12/29 13:57:50;;;;;;;18.73;4.68;;;;;;;;;;4986623;28;98567;-75
2022/12/29 14:00:19;;;;;;;26.40;4.60;;;;;;;;;;4986905;28;100223;-75
2022/12/29 14:02:45;;;;;;;18.05;4.70;;;;;;;;;;4987240;28;98326;-75
2022/12/29 14:05:17;;;;;;;18.42;4.60;;;;;;;;;;4990175;28;99442;-75
2022/12/29 14:07:44;;;;;;;18.27;4.65;;;;;;;;;;4987711;28;98398;-76
2022/12/29 14:10:27;;;;;;;19.95;3.97;;;;;;;;;;4987650;28;98740;-74
2022/12/29 14:13:20;;;;;;;16.42;4.05;;;;;;;;;;4987404;28;99016;-76
2022/12/29 14:15:54;;;;;;;20.50;4.75;;;;;;;;;;4986258;28;98146;-76
2022/12/29 14:18:21;;;;;;;22.63;4.60;;;;;;;;;;4987523;28;99314;-76
2022/12/29 14:20:56;;;;;;;9.70;3.33;;;;;;;;;;4986926;28;99530;-76
2022/12/29 14:23:36;;;;;;;20.77;3.92;;;;;;;;;;4986801;28;98339;-78
2022/12/29 14:26:06;;;;;;;12.75;2.92;;;;;;;;;;4987477;28;98618;-76
2022/12/29 14:28:32;;;;;;;17.88;2.92;;;;;;;;;;4990136;28;100194;-76
2022/12/29 14:30:59;;;;;;;9.40;2.40;;;;;;;;;;4987697;28;98599;-76
2022/12/29 14:33:28;;;;;;;8.63;2.63;;;;;;;;;;4986257;28;99806;-76
2022/12/29 14:35:54;;;;;;;7.55;2.30;;;;;;;;;;4987415;28;98394;-76
2022/12/29 14:38:23;;;;;;;9.23;2.25;;;;;;;;;;4987322;28;99427;-75
2022/12/29 14:40:51;;;;;;;8.05;1.92;;;;;;;;;;4986552;28;99984;-76
2022/12/29 14:43:22;;;;;;;5.55;1.95;;;;;;;;;;4986733;28;98347;-75
2022/12/29 14:45:54;;;;;;;7.78;1.88;;;;;;;;;;4987324;28;99596;-76
2022/12/29 14:48:28;;;;;;;5.10;1.65;;;;;;;;;;4985672;28;99993;-76
2022/12/29 14:50:55;;;;;;;4.80;1.80;;;;;;;;;;4990404;28;98178;-76
2022/12/29 14:53:41;;;;;;;9.00;1.70;;;;;;;;;;4986656;28;99926;-75
2022/12/29 14:56:09;;;;;;;8.50;2.65;;;;;;;;;;4986497;28;98463;-75
2022/12/29 14:58:39;;;;;;;6.18;2.08;;;;;;;;;;4986817;28;99126;-76
2022/12/29 15:01:14;;;;;;;6.35;1.80;;;;;;;;;;4987062;28;100276;-75
2022/12/29 15:03:45;;;;;;;7.93;2.35;;;;;;;;;;4986550;28;98558;-76
2022/12/29 15:06:16;;;;;;;8.32;2.53;;;;;;;;;;4987380;28;99376;-76
2022/12/29 15:08:55;;;;;;;7.97;2.63;;;;;;;;;;4985353;28;100675;-76
2022/12/29 15:11:23;;;;;;;12.95;2.47;;;;;;;;;;4986883;28;98670;-75
2022/12/29 15:13:50;;;;;;;13.77;3.20;;;;;;;;;;4989022;28;99562;-75
2022/12/29 15:16:29;;;;;;;9.85;3.05;;;;;;;;;;4986140;28;98297;-75
2022/12/29 15:18:56;;;;;;;10.40;2.60;;;;;;;;;;4986824;28;99297;-76
2022/12/29 15:21:29;;;;;;;11.25;2.72;;;;;;;;;;4986592;28;99384;-76
2022/12/29 15:23:56;;;;;;;10.32;3.35;;;;;;;;;;4986173;28;98463;-77
2022/12/29 15:26:22;;;;;;;10.18;3.30;;;;;;;;;;4986662;28;99718;-76
2022/12/29 15:28:50;;;;;;;8.13;2.40;;;;;;;;;;4986194;28;100051;-76
2022/12/29 15:31:18;;;;;;;18.35;3.10;;;;;;;;;;4986252;28;98321;-75